Ferry Dougo — JD4006 — position and weather

sailwx.info

Track history (hours):
 
Tides and Currents Weather Stations Pressure Air Temp Water Temp Dewpoint Dewpoint Depression Visibility Wind Speed Wind Dir Waves Ship Positions

Ferry Dougo

Last reported at 2017-Oct-21 10:12 UTC. Time now 2017-Oct-22 23:04 UTC.
Position N 34°33' E 134°47'.

Length 191 m; draft 6.8 m.

Type: Passenger vessel. MMSI: 431007905.

Date/timePositionNaut miles runAvg speedWind from/ knotsBaromVisibWave heightAir tempDewpointWater temp
2017-Oct-21 10:12N 34°33' E 134°47'420.7
2017-Oct-21 10:00N 34°35' E 134°52'918.5
2017-Oct-21 09:30N 34°37' E 135°02'815.3
2017-Oct-21 09:00N 34°29' E 135°03'1018.9
2017-Oct-21 08:30N 34°20' E 135°01'917.3
2017-Oct-21 08:00N 34°12' E 134°57'22612.5
2017-Oct-20 13:59N 34°56' E 139°26'918.5
2017-Oct-20 13:30N 35°02' E 139°35'1020.5
2017-Oct-20 13:01N 35°08' E 139°44'815.9
2017-Oct-20 12:30N 35°16' E 139°46'714.3
2017-Oct-20 12:01N 35°23' E 139°42'1019.3
2017-Oct-20 11:30N 35°29' E 139°51'815.1
2017-Oct-20 11:00N 35°37' E 139°48'0 0.0
2017-Oct-19 23:29N 35°37' E 139°48'710.5
2017-Oct-19 22:49N 35°31' E 139°52'517.1
2017-Oct-19 22:30N 35°26' E 139°49'714.0
2017-Oct-19 22:00N 35°20' E 139°44'611.8
2017-Oct-19 21:30N 35°15' E 139°47'713.8
2017-Oct-19 21:00N 35°08' E 139°47'713.3
2017-Oct-19 20:30N 35°03' E 139°41'917.8
2017-Oct-19 20:00N 34°58' E 139°32'23711.7
2017-Oct-18 23:42N 34°09' E 134°51'421.1
2017-Oct-18 23:30N 34°11' E 134°54'1019.2
2017-Oct-18 23:00N 34°20' E 134°59'1020.4
2017-Oct-18 22:30N 34°30' E 135°02'714.1
2017-Oct-18 22:00N 34°37' E 135°00'815.9
2017-Oct-18 21:30N 34°34' E 134°51'  
2017-Oct-16 13:40N 34°54' E 139°27'318.3
2017-Oct-16 13:30N 34°56' E 139°30'1019.7
2017-Oct-16 13:00N 35°03' E 139°38'1121.4
2017-Oct-16 12:30N 35°12' E 139°46'612.9
2017-Oct-16 12:00N 35°18' E 139°44'715.0
2017-Oct-16 11:31N 35°25' E 139°45'918.8
2017-Oct-16 11:01N 35°33' E 139°51'4 0.3
2017-Oct-15 20:31N 35°37' E 139°48'0 0.5
2017-Oct-15 20:24N 35°37' E 139°48'713.2
2017-Oct-15 19:50N 35°30' E 139°52'617.1
2017-Oct-15 19:30N 35°26' E 139°48'713.2
2017-Oct-15 19:00N 35°20' E 139°44'612.2
2017-Oct-15 18:30N 35°14' E 139°47'917.3
2017-Oct-15 18:00N 35°06' E 139°43'1020.6
2017-Oct-15 17:30N 34°58' E 139°35'1020.5
2017-Oct-15 17:00N 34°52' E 139°25'  
2017-Oct-12 14:28N 34°51' E 139°22'818.0
2017-Oct-12 14:00N 34°57' E 139°29'918.4
2017-Oct-12 13:30N 35°04' E 139°38'918.4
2017-Oct-12 13:00N 35°11' E 139°45'612.3
2017-Oct-12 12:30N 35°17' E 139°45'713.8
2017-Oct-12 12:01N 35°23' E 139°42'918.0
2017-Oct-12 11:31N 35°29' E 139°51'815.8
2017-Oct-12 11:00N 35°37' E 139°48'10 0.6
2017-Oct-11 19:32N 35°28' E 139°50'119.0
2017-Oct-11 19:30N 35°27' E 139°50'714.5
2017-Oct-11 19:00N 35°21' E 139°45'611.4
2017-Oct-11 18:30N 35°16' E 139°47'714.5
2017-Oct-11 18:00N 35°08' E 139°46'917.8
2017-Oct-11 17:30N 34°60' E 139°42'1019.2
2017-Oct-11 17:00N 34°54' E 139°33'  
Track history (hours):
 
Tides and Currents Weather Stations Pressure Air Temp Water Temp Dewpoint Dewpoint Depression Visibility Wind Speed Wind Dir Waves Ship Positions

Ferry Dougo

Last reported at 2017-Oct-21 10:12 UTC. Time now 2017-Oct-22 23:04 UTC.
Position N 34°33' E 134°47'.

Length 191 m; draft 6.8 m.

Type: Passenger vessel. MMSI: 431007905.

Date/timePositionNaut miles runAvg speedWind from/ knotsBaromVisibWave heightAir tempDewpointWater temp
2017-Oct-21 10:12N 34°33' E 134°47'420.7
2017-Oct-21 10:00N 34°35' E 134°52'918.5
2017-Oct-21 09:30N 34°37' E 135°02'815.3
2017-Oct-21 09:00N 34°29' E 135°03'1018.9
2017-Oct-21 08:30N 34°20' E 135°01'917.3
2017-Oct-21 08:00N 34°12' E 134°57'22612.5
2017-Oct-20 13:59N 34°56' E 139°26'918.5
2017-Oct-20 13:30N 35°02' E 139°35'1020.5
2017-Oct-20 13:01N 35°08' E 139°44'815.9
2017-Oct-20 12:30N 35°16' E 139°46'714.3
2017-Oct-20 12:01N 35°23' E 139°42'1019.3
2017-Oct-20 11:30N 35°29' E 139°51'815.1
2017-Oct-20 11:00N 35°37' E 139°48'0 0.0
2017-Oct-19 23:29N 35°37' E 139°48'710.5
2017-Oct-19 22:49N 35°31' E 139°52'517.1
2017-Oct-19 22:30N 35°26' E 139°49'714.0
2017-Oct-19 22:00N 35°20' E 139°44'611.8
2017-Oct-19 21:30N 35°15' E 139°47'713.8
2017-Oct-19 21:00N 35°08' E 139°47'713.3
2017-Oct-19 20:30N 35°03' E 139°41'917.8
2017-Oct-19 20:00N 34°58' E 139°32'23711.7
2017-Oct-18 23:42N 34°09' E 134°51'421.1
2017-Oct-18 23:30N 34°11' E 134°54'1019.2
2017-Oct-18 23:00N 34°20' E 134°59'1020.4
2017-Oct-18 22:30N 34°30' E 135°02'714.1
2017-Oct-18 22:00N 34°37' E 135°00'815.9
2017-Oct-18 21:30N 34°34' E 134°51'  
2017-Oct-16 13:40N 34°54' E 139°27'318.3
2017-Oct-16 13:30N 34°56' E 139°30'1019.7
2017-Oct-16 13:00N 35°03' E 139°38'1121.4
2017-Oct-16 12:30N 35°12' E 139°46'612.9
2017-Oct-16 12:00N 35°18' E 139°44'715.0
2017-Oct-16 11:31N 35°25' E 139°45'918.8
2017-Oct-16 11:01N 35°33' E 139°51'4 0.3
2017-Oct-15 20:31N 35°37' E 139°48'0 0.5
2017-Oct-15 20:24N 35°37' E 139°48'713.2
2017-Oct-15 19:50N 35°30' E 139°52'617.1
2017-Oct-15 19:30N 35°26' E 139°48'713.2
2017-Oct-15 19:00N 35°20' E 139°44'612.2
2017-Oct-15 18:30N 35°14' E 139°47'917.3
2017-Oct-15 18:00N 35°06' E 139°43'1020.6
2017-Oct-15 17:30N 34°58' E 139°35'1020.5
2017-Oct-15 17:00N 34°52' E 139°25'  
2017-Oct-12 14:28N 34°51' E 139°22'818.0
2017-Oct-12 14:00N 34°57' E 139°29'918.4
2017-Oct-12 13:30N 35°04' E 139°38'918.4
2017-Oct-12 13:00N 35°11' E 139°45'612.3
2017-Oct-12 12:30N 35°17' E 139°45'713.8
2017-Oct-12 12:01N 35°23' E 139°42'918.0
2017-Oct-12 11:31N 35°29' E 139°51'815.8
2017-Oct-12 11:00N 35°37' E 139°48'10 0.6
2017-Oct-11 19:32N 35°28' E 139°50'119.0
2017-Oct-11 19:30N 35°27' E 139°50'714.5
2017-Oct-11 19:00N 35°21' E 139°45'611.4
2017-Oct-11 18:30N 35°16' E 139°47'714.5
2017-Oct-11 18:00N 35°08' E 139°46'917.8
2017-Oct-11 17:30N 34°60' E 139°42'1019.2
2017-Oct-11 17:00N 34°54' E 139°33'  

Dump ship's entire track history